sensor_id;sensor_type;location;lat;lon;timestamp;temperature;humidity
20370;DHT22;10344;47.592;9.600;2023-09-19T00:00:43;17.00;99.90
20370;DHT22;10344;47.592;9.600;2023-09-19T00:03:13;17.00;99.90
20370;DHT22;10344;47.592;9.600;2023-09-19T00:05:42;17.00;99.90
20370;DHT22;10344;47.592;9.600;2023-09-19T00:08:09;17.00;99.90
20370;DHT22;10344;47.592;9.600;2023-09-19T00:10:35;17.10;99.90
20370;DHT22;10344;47.592;9.600;2023-09-19T00:13:05;17.10;99.90
20370;DHT22;10344;47.592;9.600;2023-09-19T00:15:35;17.10;99.90
20370;DHT22;10344;47.592;9.600;2023-09-19T00:18:05;17.10;99.90
20370;DHT22;10344;47.592;9.600;2023-09-19T00:20:38;17.10;99.90
20370;DHT22;10344;47.592;9.600;2023-09-19T00:23:07;17.20;99.90
20370;DHT22;10344;47.592;9.600;2023-09-19T00:25:38;17.10;99.90
20370;DHT22;10344;47.592;9.600;2023-09-19T00:28:07;17.20;99.90
20370;DHT22;10344;47.592;9.600;2023-09-19T00:30:34;17.30;99.90
20370;DHT22;10344;47.592;9.600;2023-09-19T00:33:00;17.50;99.90
20370;DHT22;10344;47.592;9.600;2023-09-19T00:35:29;17.60;99.90
20370;DHT22;10344;47.592;9.600;2023-09-19T00:37:55;17.60;99.90
20370;DHT22;10344;47.592;9.600;2023-09-19T00:40:26;17.60;99.90
20370;DHT22;10344;47.592;9.600;2023-09-19T00:42:51;17.50;99.90
20370;DHT22;10344;47.592;9.600;2023-09-19T00:45:20;17.50;99.90
20370;DHT22;10344;47.592;9.600;2023-09-19T00:47:49;17.50;99.90
20370;DHT22;10344;47.592;9.600;2023-09-19T00:50:20;17.70;99.90
20370;DHT22;10344;47.592;9.600;2023-09-19T00:52:48;17.90;99.90
20370;DHT22;10344;47.592;9.600;2023-09-19T00:55:16;18.00;99.90
20370;DHT22;10344;47.592;9.600;2023-09-19T00:57:44;18.30;99.90
20370;DHT22;10344;47.592;9.600;2023-09-19T01:00:10;18.40;99.90
20370;DHT22;10344;47.592;9.600;2023-09-19T01:02:44;18.50;99.90
20370;DHT22;10344;47.592;9.600;2023-09-19T01:05:11;18.60;99.90
20370;DHT22;10344;47.592;9.600;2023-09-19T01:07:38;18.50;99.90
20370;DHT22;10344;47.592;9.600;2023-09-19T01:10:08;18.50;99.90
20370;DHT22;10344;47.592;9.600;2023-09-19T01:17:55;18.50;99.90
20370;DHT22;10344;47.592;9.600;2023-09-19T01:26:06;18.40;99.90
20370;DHT22;10344;47.592;9.600;2023-09-19T01:28:53;18.40;99.90
20370;DHT22;10344;47.592;9.600;2023-09-19T01:31:23;18.50;99.90
20370;DHT22;10344;47.592;9.600;2023-09-19T01:34:00;18.50;99.90
20370;DHT22;10344;47.592;9.600;2023-09-19T01:36:34;18.50;99.90
20370;DHT22;10344;47.592;9.600;2023-09-19T01:39:05;18.40;99.90
20370;DHT22;10344;47.592;9.600;2023-09-19T01:44:44;18.50;99.90
20370;DHT22;10344;47.592;9.600;2023-09-19T01:47:52;18.60;99.90
20370;DHT22;10344;47.592;9.600;2023-09-19T01:53:19;18.60;99.90
20370;DHT22;10344;47.592;9.600;2023-09-19T01:55:50;18.60;99.90
20370;DHT22;10344;47.592;9.600;2023-09-19T02:01:12;18.60;99.90
20370;DHT22;10344;47.592;9.600;2023-09-19T02:03:41;18.50;99.90
20370;DHT22;10344;47.592;9.600;2023-09-19T02:06:16;18.60;99.90
20370;DHT22;10344;47.592;9.600;2023-09-19T02:08:43;18.60;99.90
20370;DHT22;10344;47.592;9.600;2023-09-19T02:11:12;18.60;99.90
20370;DHT22;10344;47.592;9.600;2023-09-19T02:13:38;18.40;99.90
20370;DHT22;10344;47.592;9.600;2023-09-19T02:16:05;18.30;99.90
20370;DHT22;10344;47.592;9.600;2023-09-19T02:18:31;18.30;99.90
20370;DHT22;10344;47.592;9.600;2023-09-19T02:21:02;18.30;99.90
20370;DHT22;10344;47.592;9.600;2023-09-19T02:23:29;18.20;99.90
20370;DHT22;10344;47.592;9.600;2023-09-19T02:25:56;18.20;99.90
20370;DHT22;10344;47.592;9.600;2023-09-19T02:28:28;18.20;99.90
20370;DHT22;10344;47.592;9.600;2023-09-19T02:30:56;18.10;99.90
20370;DHT22;10344;47.592;9.600;2023-09-19T02:33:24;18.00;99.90
20370;DHT22;10344;47.592;9.600;2023-09-19T02:35:56;18.00;99.90
20370;DHT22;10344;47.592;9.600;2023-09-19T02:38:28;18.00;99.90
20370;DHT22;10344;47.592;9.600;2023-09-19T02:40:55;17.90;99.90
20370;DHT22;10344;47.592;9.600;2023-09-19T02:43:21;17.90;99.90
20370;DHT22;10344;47.592;9.600;2023-09-19T02:45:47;17.90;99.90
20370;DHT22;10344;47.592;9.600;2023-09-19T02:48:15;17.80;99.90
20370;DHT22;10344;47.592;9.600;2023-09-19T02:50:42;17.80;99.90
20370;DHT22;10344;47.592;9.600;2023-09-19T02:53:08;17.80;99.90
20370;DHT22;10344;47.592;9.600;2023-09-19T02:55:38;17.80;99.90
20370;DHT22;10344;47.592;9.600;2023-09-19T02:58:06;17.90;99.90
20370;DHT22;10344;47.592;9.600;2023-09-19T03:00:33;17.80;99.90
20370;DHT22;10344;47.592;9.600;2023-09-19T03:03:06;17.70;99.90
20370;DHT22;10344;47.592;9.600;2023-09-19T03:05:33;17.70;99.90
20370;DHT22;10344;47.592;9.600;2023-09-19T03:07:59;17.70;99.90
20370;DHT22;10344;47.592;9.600;2023-09-19T03:10:31;17.80;99.90
20370;DHT22;10344;47.592;9.600;2023-09-19T03:12:57;17.80;99.90
20370;DHT22;10344;47.592;9.600;2023-09-19T03:15:27;17.80;99.90
20370;DHT22;10344;47.592;9.600;2023-09-19T03:17:53;17.90;99.90
20370;DHT22;10344;47.592;9.600;2023-09-19T03:20:19;18.00;99.90
20370;DHT22;10344;47.592;9.600;2023-09-19T03:22:48;18.00;99.90
20370;DHT22;10344;47.592;9.600;2023-09-19T03:25:13;18.00;99.90
20370;DHT22;10344;47.592;9.600;2023-09-19T03:27:42;18.00;99.90
20370;DHT22;10344;47.592;9.600;2023-09-19T03:30:08;18.00;99.90
20370;DHT22;10344;47.592;9.600;2023-09-19T03:32:43;18.00;99.90
20370;DHT22;10344;47.592;9.600;2023-09-19T03:35:13;18.10;99.90
20370;DHT22;10344;47.592;9.600;2023-09-19T03:37:40;18.00;99.90
20370;DHT22;10344;47.592;9.600;2023-09-19T03:40:08;18.00;99.90
20370;DHT22;10344;47.592;9.600;2023-09-19T03:42:40;18.00;99.90
20370;DHT22;10344;47.592;9.600;2023-09-19T03:45:08;18.00;99.90
20370;DHT22;10344;47.592;9.600;2023-09-19T03:47:39;18.00;99.90
20370;DHT22;10344;47.592;9.600;2023-09-19T03:50:10;18.00;99.90
20370;DHT22;10344;47.592;9.600;2023-09-19T03:52:39;18.00;99.90
20370;DHT22;10344;47.592;9.600;2023-09-19T03:55:04;18.00;99.90
20370;DHT22;10344;47.592;9.600;2023-09-19T03:57:33;18.10;99.90
20370;DHT22;10344;47.592;9.600;2023-09-19T04:00:02;18.20;99.90
20370;DHT22;10344;47.592;9.600;2023-09-19T04:02:30;18.20;99.90
20370;DHT22;10344;47.592;9.600;2023-09-19T04:04:58;18.20;99.90
20370;DHT22;10344;47.592;9.600;2023-09-19T04:07:26;18.30;99.90
20370;DHT22;10344;47.592;9.600;2023-09-19T04:09:54;18.30;99.90
20370;DHT22;10344;47.592;9.600;2023-09-19T04:12:24;18.30;99.90
20370;DHT22;10344;47.592;9.600;2023-09-19T04:14:50;18.40;99.90
20370;DHT22;10344;47.592;9.600;2023-09-19T04:17:17;18.40;99.90
20370;DHT22;10344;47.592;9.600;2023-09-19T04:19:44;18.40;99.90
20370;DHT22;10344;47.592;9.600;2023-09-19T04:22:11;18.30;99.90
20370;DHT22;10344;47.592;9.600;2023-09-19T04:24:37;18.40;99.90
20370;DHT22;10344;47.592;9.600;2023-09-19T04:27:04;18.40;99.90
20370;DHT22;10344;47.592;9.600;2023-09-19T04:29:32;18.40;99.90
20370;DHT22;10344;47.592;9.600;2023-09-19T04:32:00;18.40;99.90
20370;DHT22;10344;47.592;9.600;2023-09-19T04:34:26;18.40;99.90
20370;DHT22;10344;47.592;9.600;2023-09-19T04:36:54;18.40;99.90
20370;DHT22;10344;47.592;9.600;2023-09-19T04:39:23;18.40;99.90
20370;DHT22;10344;47.592;9.600;2023-09-19T04:41:53;18.40;99.90
20370;DHT22;10344;47.592;9.600;2023-09-19T04:44:20;18.30;99.90
20370;DHT22;10344;47.592;9.600;2023-09-19T04:46:46;18.20;99.90
20370;DHT22;10344;47.592;9.600;2023-09-19T04:49:12;18.20;99.90
20370;DHT22;10344;47.592;9.600;2023-09-19T04:51:38;18.30;99.90
20370;DHT22;10344;47.592;9.600;2023-09-19T04:54:10;18.30;99.90
20370;DHT22;10344;47.592;9.600;2023-09-19T04:56:38;18.40;99.90
20370;DHT22;10344;47.592;9.600;2023-09-19T04:59:06;18.40;99.90
20370;DHT22;10344;47.592;9.600;2023-09-19T05:01:32;18.50;99.90
20370;DHT22;10344;47.592;9.600;2023-09-19T05:03:57;18.50;99.90
20370;DHT22;10344;47.592;9.600;2023-09-19T05:06:23;18.50;99.90
20370;DHT22;10344;47.592;9.600;2023-09-19T05:08:50;18.40;99.90
20370;DHT22;10344;47.592;9.600;2023-09-19T05:11:19;18.40;99.90
20370;DHT22;10344;47.592;9.600;2023-09-19T05:13:49;18.30;99.90
20370;DHT22;10344;47.592;9.600;2023-09-19T05:16:18;18.30;99.90
20370;DHT22;10344;47.592;9.600;2023-09-19T05:18:46;18.30;99.90
20370;DHT22;10344;47.592;9.600;2023-09-19T05:21:12;18.40;99.90
20370;DHT22;10344;47.592;9.600;2023-09-19T05:23:38;18.40;99.90
20370;DHT22;10344;47.592;9.600;2023-09-19T05:26:06;18.50;99.90
20370;DHT22;10344;47.592;9.600;2023-09-19T05:28:32;18.60;99.90
20370;DHT22;10344;47.592;9.600;2023-09-19T05:31:02;18.60;99.90
20370;DHT22;10344;47.592;9.600;2023-09-19T05:33:28;18.60;99.90
20370;DHT22;10344;47.592;9.600;2023-09-19T05:35:57;18.70;99.90
20370;DHT22;10344;47.592;9.600;2023-09-19T05:38:24;18.60;99.90
20370;DHT22;10344;47.592;9.600;2023-09-19T05:40:54;18.60;99.90
20370;DHT22;10344;47.592;9.600;2023-09-19T05:43:22;18.60;99.90
20370;DHT22;10344;47.592;9.600;2023-09-19T05:45:49;18.60;99.90
20370;DHT22;10344;47.592;9.600;2023-09-19T05:48:19;18.60;99.90
20370;DHT22;10344;47.592;9.600;2023-09-19T05:50:47;18.60;99.90
20370;DHT22;10344;47.592;9.600;2023-09-19T05:53:14;18.60;99.90
20370;DHT22;10344;47.592;9.600;2023-09-19T05:55:44;18.60;99.90
20370;DHT22;10344;47.592;9.600;2023-09-19T05:58:13;18.70;99.90
20370;DHT22;10344;47.592;9.600;2023-09-19T06:00:43;18.60;99.90
20370;DHT22;10344;47.592;9.600;2023-09-19T06:03:10;18.70;99.90
20370;DHT22;10344;47.592;9.600;2023-09-19T06:05:37;18.70;99.90
20370;DHT22;10344;47.592;9.600;2023-09-19T06:08:05;18.70;99.90
20370;DHT22;10344;47.592;9.600;2023-09-19T06:10:33;18.70;99.90
20370;DHT22;10344;47.592;9.600;2023-09-19T06:13:00;18.70;99.90
20370;DHT22;10344;47.592;9.600;2023-09-19T06:15:30;18.70;99.90
20370;DHT22;10344;47.592;9.600;2023-09-19T06:17:58;18.80;99.90
20370;DHT22;10344;47.592;9.600;2023-09-19T06:20:27;18.80;99.90
20370;DHT22;10344;47.592;9.600;2023-09-19T06:22:57;18.80;99.90
20370;DHT22;10344;47.592;9.600;2023-09-19T06:25:23;18.80;99.90
20370;DHT22;10344;47.592;9.600;2023-09-19T06:27:50;18.80;99.90
20370;DHT22;10344;47.592;9.600;2023-09-19T06:30:24;18.90;99.90
20370;DHT22;10344;47.592;9.600;2023-09-19T06:32:56;19.00;99.90
20370;DHT22;10344;47.592;9.600;2023-09-19T06:35:24;19.10;99.90
20370;DHT22;10344;47.592;9.600;2023-09-19T06:37:52;19.00;99.90
20370;DHT22;10344;47.592;9.600;2023-09-19T06:40:18;19.00;99.90
20370;DHT22;10344;47.592;9.600;2023-09-19T06:42:49;19.00;99.90
20370;DHT22;10344;47.592;9.600;2023-09-19T06:45:19;19.10;99.90
20370;DHT22;10344;47.592;9.600;2023-09-19T06:47:48;19.20;99.90
20370;DHT22;10344;47.592;9.600;2023-09-19T06:50:21;19.20;99.90
20370;DHT22;10344;47.592;9.600;2023-09-19T06:52:53;19.30;99.90
20370;DHT22;10344;47.592;9.600;2023-09-19T06:55:23;19.40;99.90
20370;DHT22;10344;47.592;9.600;2023-09-19T06:57:55;19.50;99.90
20370;DHT22;10344;47.592;9.600;2023-09-19T07:00:23;19.60;99.90
20370;DHT22;10344;47.592;9.600;2023-09-19T07:03:00;19.80;99.90
20370;DHT22;10344;47.592;9.600;2023-09-19T07:05:39;19.80;99.90
20370;DHT22;10344;47.592;9.600;2023-09-19T07:08:08;19.90;99.90
20370;DHT22;10344;47.592;9.600;2023-09-19T07:10:35;19.90;99.90
20370;DHT22;10344;47.592;9.600;2023-09-19T07:13:04;19.90;99.90
20370;DHT22;10344;47.592;9.600;2023-09-19T07:15:32;20.00;99.90
20370;DHT22;10344;47.592;9.600;2023-09-19T07:18:02;20.00;99.90
20370;DHT22;10344;47.592;9.600;2023-09-19T07:20:28;20.10;99.90
20370;DHT22;10344;47.592;9.600;2023-09-19T07:22:57;20.30;99.90
20370;DHT22;10344;47.592;9.600;2023-09-19T07:25:25;20.80;99.90
20370;DHT22;10344;47.592;9.600;2023-09-19T07:27:57;21.70;99.90
20370;DHT22;10344;47.592;9.600;2023-09-19T07:30:26;22.50;99.90
20370;DHT22;10344;47.592;9.600;2023-09-19T07:32:52;23.20;99.90
20370;DHT22;10344;47.592;9.600;2023-09-19T07:35:21;23.40;99.90
20370;DHT22;10344;47.592;9.600;2023-09-19T07:37:49;23.20;99.90
20370;DHT22;10344;47.592;9.600;2023-09-19T07:40:18;22.70;99.90
20370;DHT22;10344;47.592;9.600;2023-09-19T07:42:44;22.20;99.90
20370;DHT22;10344;47.592;9.600;2023-09-19T07:45:13;21.90;99.90
20370;DHT22;10344;47.592;9.600;2023-09-19T07:47:51;21.80;99.90
20370;DHT22;10344;47.592;9.600;2023-09-19T07:50:18;21.90;99.90
20370;DHT22;10344;47.592;9.600;2023-09-19T07:52:45;22.00;99.90
20370;DHT22;10344;47.592;9.600;2023-09-19T07:55:13;22.00;99.90
20370;DHT22;10344;47.592;9.600;2023-09-19T07:57:43;21.80;99.90
20370;DHT22;10344;47.592;9.600;2023-09-19T08:00:09;21.50;99.90
20370;DHT22;10344;47.592;9.600;2023-09-19T08:02:39;21.20;99.90
20370;DHT22;10344;47.592;9.600;2023-09-19T08:05:06;21.00;99.90
20370;DHT22;10344;47.592;9.600;2023-09-19T08:07:36;20.90;99.90
20370;DHT22;10344;47.592;9.600;2023-09-19T08:10:03;20.80;99.90
20370;DHT22;10344;47.592;9.600;2023-09-19T08:12:29;20.70;99.90
20370;DHT22;10344;47.592;9.600;2023-09-19T08:14:55;20.50;99.90
20370;DHT22;10344;47.592;9.600;2023-09-19T08:17:22;20.40;99.90
20370;DHT22;10344;47.592;9.600;2023-09-19T08:19:52;20.40;99.90
20370;DHT22;10344;47.592;9.600;2023-09-19T08:22:21;20.30;99.90
20370;DHT22;10344;47.592;9.600;2023-09-19T08:24:51;20.20;99.90
20370;DHT22;10344;47.592;9.600;2023-09-19T08:27:17;20.20;99.90
20370;DHT22;10344;47.592;9.600;2023-09-19T08:29:46;20.30;99.90
20370;DHT22;10344;47.592;9.600;2023-09-19T08:32:12;20.30;99.90
20370;DHT22;10344;47.592;9.600;2023-09-19T08:34:40;20.40;99.90
20370;DHT22;10344;47.592;9.600;2023-09-19T08:37:08;20.50;99.90
20370;DHT22;10344;47.592;9.600;2023-09-19T08:39:39;20.80;99.90
20370;DHT22;10344;47.592;9.600;2023-09-19T08:42:07;21.00;99.90
20370;DHT22;10344;47.592;9.600;2023-09-19T08:44:36;21.10;99.90
20370;DHT22;10344;47.592;9.600;2023-09-19T08:47:15;21.40;99.90
20370;DHT22;10344;47.592;9.600;2023-09-19T08:50:08;21.70;99.90
20370;DHT22;10344;47.592;9.600;2023-09-19T08:52:43;22.00;99.90
20370;DHT22;10344;47.592;9.600;2023-09-19T08:55:14;22.20;99.90
20370;DHT22;10344;47.592;9.600;2023-09-19T08:57:49;22.30;99.90
20370;DHT22;10344;47.592;9.600;2023-09-19T09:00:19;22.50;99.90
20370;DHT22;10344;47.592;9.600;2023-09-19T09:02:47;22.50;99.90
20370;DHT22;10344;47.592;9.600;2023-09-19T09:05:15;22.40;99.90
20370;DHT22;10344;47.592;9.600;2023-09-19T09:07:51;22.30;99.90
20370;DHT22;10344;47.592;9.600;2023-09-19T09:10:18;22.30;99.90
20370;DHT22;10344;47.592;9.600;2023-09-19T09:12:51;22.30;99.90
20370;DHT22;10344;47.592;9.600;2023-09-19T09:15:24;22.40;99.90
20370;DHT22;10344;47.592;9.600;2023-09-19T09:17:53;22.40;99.90
20370;DHT22;10344;47.592;9.600;2023-09-19T09:20:22;22.30;99.90
20370;DHT22;10344;47.592;9.600;2023-09-19T09:23:06;22.20;99.90
20370;DHT22;10344;47.592;9.600;2023-09-19T09:28:19;22.50;99.90
20370;DHT22;10344;47.592;9.600;2023-09-19T09:30:46;22.40;99.90
20370;DHT22;10344;47.592;9.600;2023-09-19T09:33:15;22.20;99.90
20370;DHT22;10344;47.592;9.600;2023-09-19T09:36:03;22.10;99.90
20370;DHT22;10344;47.592;9.600;2023-09-19T09:38:45;22.10;99.90
20370;DHT22;10344;47.592;9.600;2023-09-19T09:41:11;22.00;99.90
20370;DHT22;10344;47.592;9.600;2023-09-19T09:43:43;21.90;99.90
20370;DHT22;10344;47.592;9.600;2023-09-19T09:46:14;21.80;99.90
20370;DHT22;10344;47.592;9.600;2023-09-19T09:51:40;21.50;99.90
20370;DHT22;10344;47.592;9.600;2023-09-19T09:54:12;21.40;99.90
20370;DHT22;10344;47.592;9.600;2023-09-19T09:56:53;21.10;99.90
20370;DHT22;10344;47.592;9.600;2023-09-19T10:02:16;20.70;99.90
20370;DHT22;10344;47.592;9.600;2023-09-19T10:04:55;20.60;99.90
20370;DHT22;10344;47.592;9.600;2023-09-19T10:07:30;20.70;99.90
20370;DHT22;10344;47.592;9.600;2023-09-19T10:10:34;20.70;99.90
20370;DHT22;10344;47.592;9.600;2023-09-19T10:13:07;20.70;99.90
20370;DHT22;10344;47.592;9.600;2023-09-19T10:15:33;20.80;99.90
20370;DHT22;10344;47.592;9.600;2023-09-19T10:18:05;20.80;99.90
20370;DHT22;10344;47.592;9.600;2023-09-19T10:20:34;20.80;99.90
20370;DHT22;10344;47.592;9.600;2023-09-19T10:23:12;20.60;99.90
20370;DHT22;10344;47.592;9.600;2023-09-19T10:25:43;20.50;99.90
20370;DHT22;10344;47.592;9.600;2023-09-19T10:28:15;20.70;99.90
20370;DHT22;10344;47.592;9.600;2023-09-19T10:30:45;21.00;99.90
20370;DHT22;10344;47.592;9.600;2023-09-19T10:33:21;21.40;99.90
20370;DHT22;10344;47.592;9.600;2023-09-19T10:35:53;21.70;99.90
20370;DHT22;10344;47.592;9.600;2023-09-19T10:38:27;22.00;99.90
20370;DHT22;10344;47.592;9.600;2023-09-19T10:40:55;22.10;99.90
20370;DHT22;10344;47.592;9.600;2023-09-19T10:43:32;22.10;99.90
20370;DHT22;10344;47.592;9.600;2023-09-19T10:46:08;22.10;99.90
20370;DHT22;10344;47.592;9.600;2023-09-19T10:48:39;22.30;99.90
20370;DHT22;10344;47.592;9.600;2023-09-19T10:51:16;22.50;99.90
20370;DHT22;10344;47.592;9.600;2023-09-19T10:53:55;22.70;99.90
20370;DHT22;10344;47.592;9.600;2023-09-19T10:56:39;22.80;99.90
20370;DHT22;10344;47.592;9.600;2023-09-19T10:59:08;23.10;99.90
20370;DHT22;10344;47.592;9.600;2023-09-19T11:01:52;23.40;99.90
20370;DHT22;10344;47.592;9.600;2023-09-19T11:04:32;23.90;99.90
20370;DHT22;10344;47.592;9.600;2023-09-19T11:09:49;24.20;99.90
20370;DHT22;10344;47.592;9.600;2023-09-19T11:26:50;22.80;99.90
20370;DHT22;10344;47.592;9.600;2023-09-19T11:29:26;22.90;99.90
20370;DHT22;10344;47.592;9.600;2023-09-19T11:31:52;22.90;99.90
20370;DHT22;10344;47.592;9.600;2023-09-19T11:39:40;24.00;99.90
20370;DHT22;10344;47.592;9.600;2023-09-19T11:48:16;24.30;99.90
20370;DHT22;10344;47.592;9.600;2023-09-19T11:50:45;24.20;99.90
20370;DHT22;10344;47.592;9.600;2023-09-19T11:53:13;24.40;99.90
20370;DHT22;10344;47.592;9.600;2023-09-19T11:55:42;24.60;99.90
20370;DHT22;10344;47.592;9.600;2023-09-19T11:58:09;24.90;99.90
20370;DHT22;10344;47.592;9.600;2023-09-19T12:00:41;25.10;99.90
20370;DHT22;10344;47.592;9.600;2023-09-19T12:03:12;25.30;99.90
20370;DHT22;10344;47.592;9.600;2023-09-19T12:05:39;25.50;99.90
20370;DHT22;10344;47.592;9.600;2023-09-19T12:08:06;25.70;99.90
20370;DHT22;10344;47.592;9.600;2023-09-19T12:10:48;25.70;99.90
20370;DHT22;10344;47.592;9.600;2023-09-19T12:13:18;25.70;99.90
20370;DHT22;10344;47.592;9.600;2023-09-19T12:15:44;25.60;99.90
20370;DHT22;10344;47.592;9.600;2023-09-19T12:18:31;25.60;99.90
20370;DHT22;10344;47.592;9.600;2023-09-19T12:20:57;25.80;99.90
20370;DHT22;10344;47.592;9.600;2023-09-19T12:23:30;26.10;99.90
20370;DHT22;10344;47.592;9.600;2023-09-19T12:25:55;26.50;99.90
20370;DHT22;10344;47.592;9.600;2023-09-19T12:28:26;26.70;99.90
20370;DHT22;10344;47.592;9.600;2023-09-19T12:30:52;26.80;99.90
20370;DHT22;10344;47.592;9.600;2023-09-19T12:33:23;26.70;99.90
20370;DHT22;10344;47.592;9.600;2023-09-19T12:35:51;26.80;99.90
20370;DHT22;10344;47.592;9.600;2023-09-19T12:38:26;27.00;99.90
20370;DHT22;10344;47.592;9.600;2023-09-19T12:41:01;27.10;99.90
20370;DHT22;10344;47.592;9.600;2023-09-19T12:43:32;27.20;99.90
20370;DHT22;10344;47.592;9.600;2023-09-19T12:45:59;27.30;99.90
20370;DHT22;10344;47.592;9.600;2023-09-19T12:48:26;27.20;99.90
20370;DHT22;10344;47.592;9.600;2023-09-19T12:51:11;27.20;99.90
20370;DHT22;10344;47.592;9.600;2023-09-19T12:53:57;27.20;99.90
20370;DHT22;10344;47.592;9.600;2023-09-19T12:56:23;27.30;99.90
20370;DHT22;10344;47.592;9.600;2023-09-19T12:58:55;27.40;99.90
20370;DHT22;10344;47.592;9.600;2023-09-19T13:01:23;27.50;99.90
20370;DHT22;10344;47.592;9.600;2023-09-19T13:04:20;27.60;99.90
20370;DHT22;10344;47.592;9.600;2023-09-19T13:07:01;27.80;99.90
20370;DHT22;10344;47.592;9.600;2023-09-19T13:09:28;27.70;99.90
20370;DHT22;10344;47.592;9.600;2023-09-19T13:12:00;27.80;99.90
20370;DHT22;10344;47.592;9.600;2023-09-19T13:14:28;27.90;99.90
20370;DHT22;10344;47.592;9.600;2023-09-19T13:17:07;28.10;99.90
20370;DHT22;10344;47.592;9.600;2023-09-19T13:22:45;27.80;99.90
20370;DHT22;10344;47.592;9.600;2023-09-19T13:25:16;27.60;99.90
20370;DHT22;10344;47.592;9.600;2023-09-19T13:30:14;26.80;99.90
20370;DHT22;10344;47.592;9.600;2023-09-19T13:32:40;26.80;99.90
20370;DHT22;10344;47.592;9.600;2023-09-19T13:35:07;26.60;99.90
20370;DHT22;10344;47.592;9.600;2023-09-19T13:37:38;26.50;99.90
20370;DHT22;10344;47.592;9.600;2023-09-19T13:40:12;26.20;99.90
20370;DHT22;10344;47.592;9.600;2023-09-19T13:42:39;26.30;99.90
20370;DHT22;10344;47.592;9.600;2023-09-19T13:45:06;26.20;99.90
20370;DHT22;10344;47.592;9.600;2023-09-19T13:47:36;26.40;99.90
20370;DHT22;10344;47.592;9.600;2023-09-19T13:50:03;26.70;99.90
20370;DHT22;10344;47.592;9.600;2023-09-19T13:52:30;26.80;99.90
20370;DHT22;10344;47.592;9.600;2023-09-19T13:54:59;26.70;99.90
20370;DHT22;10344;47.592;9.600;2023-09-19T13:57:27;26.70;99.90
20370;DHT22;10344;47.592;9.600;2023-09-19T13:59:53;26.60;99.90
20370;DHT22;10344;47.592;9.600;2023-09-19T14:02:25;26.80;99.90
20370;DHT22;10344;47.592;9.600;2023-09-19T14:04:56;26.90;99.90
20370;DHT22;10344;47.592;9.600;2023-09-19T14:07:23;26.60;99.90
20370;DHT22;10344;47.592;9.600;2023-09-19T14:09:49;26.30;99.90
20370;DHT22;10344;47.592;9.600;2023-09-19T14:12:15;26.40;99.90
20370;DHT22;10344;47.592;9.600;2023-09-19T14:14:40;26.40;99.90
20370;DHT22;10344;47.592;9.600;2023-09-19T14:17:08;26.30;99.90
20370;DHT22;10344;47.592;9.600;2023-09-19T14:19:37;26.30;99.90
20370;DHT22;10344;47.592;9.600;2023-09-19T14:22:03;26.30;99.90
20370;DHT22;10344;47.592;9.600;2023-09-19T14:24:33;26.30;99.90
20370;DHT22;10344;47.592;9.600;2023-09-19T14:27:00;26.30;99.90
20370;DHT22;10344;47.592;9.600;2023-09-19T14:29:28;26.30;99.90
20370;DHT22;10344;47.592;9.600;2023-09-19T14:31:57;26.30;99.90
20370;DHT22;10344;47.592;9.600;2023-09-19T14:34:27;26.30;99.90
20370;DHT22;10344;47.592;9.600;2023-09-19T14:36:53;26.40;99.90
20370;DHT22;10344;47.592;9.600;2023-09-19T14:39:20;26.40;99.90
20370;DHT22;10344;47.592;9.600;2023-09-19T14:41:45;26.40;99.90
20370;DHT22;10344;47.592;9.600;2023-09-19T14:44:11;26.60;99.90
20370;DHT22;10344;47.592;9.600;2023-09-19T14:46:39;26.80;99.90
20370;DHT22;10344;47.592;9.600;2023-09-19T14:49:04;26.90;99.90
20370;DHT22;10344;47.592;9.600;2023-09-19T14:51:33;27.00;99.90
20370;DHT22;10344;47.592;9.600;2023-09-19T14:54:03;27.00;99.90
20370;DHT22;10344;47.592;9.600;2023-09-19T14:56:31;27.30;99.90
20370;DHT22;10344;47.592;9.600;2023-09-19T14:59:05;27.40;99.90
20370;DHT22;10344;47.592;9.600;2023-09-19T15:01:33;27.30;99.90
20370;DHT22;10344;47.592;9.600;2023-09-19T15:04:01;27.50;99.90
20370;DHT22;10344;47.592;9.600;2023-09-19T15:06:31;27.70;99.90
20370;DHT22;10344;47.592;9.600;2023-09-19T15:08:57;28.10;99.90
20370;DHT22;10344;47.592;9.600;2023-09-19T15:11:28;28.40;99.90
20370;DHT22;10344;47.592;9.600;2023-09-19T15:13:54;28.70;99.90
20370;DHT22;10344;47.592;9.600;2023-09-19T15:16:20;29.00;99.90
20370;DHT22;10344;47.592;9.600;2023-09-19T15:18:48;29.20;99.90
20370;DHT22;10344;47.592;9.600;2023-09-19T15:21:17;29.00;99.90
20370;DHT22;10344;47.592;9.600;2023-09-19T15:23:43;29.30;99.90
20370;DHT22;10344;47.592;9.600;2023-09-19T15:26:15;29.50;99.90
20370;DHT22;10344;47.592;9.600;2023-09-19T15:28:46;29.40;99.90
20370;DHT22;10344;47.592;9.600;2023-09-19T15:31:12;28.80;99.90
20370;DHT22;10344;47.592;9.600;2023-09-19T15:33:43;28.60;99.90
20370;DHT22;10344;47.592;9.600;2023-09-19T15:36:15;28.50;99.90
20370;DHT22;10344;47.592;9.600;2023-09-19T15:41:19;28.60;99.90
20370;DHT22;10344;47.592;9.600;2023-09-19T15:43:49;28.70;99.90
20370;DHT22;10344;47.592;9.600;2023-09-19T15:46:17;28.60;99.90
20370;DHT22;10344;47.592;9.600;2023-09-19T15:48:43;28.30;99.90
20370;DHT22;10344;47.592;9.600;2023-09-19T15:51:12;28.20;99.90
20370;DHT22;10344;47.592;9.600;2023-09-19T15:53:48;27.90;99.90
20370;DHT22;10344;47.592;9.600;2023-09-19T15:56:15;27.10;99.90
20370;DHT22;10344;47.592;9.600;2023-09-19T15:58:46;26.30;99.90
20370;DHT22;10344;47.592;9.600;2023-09-19T16:01:17;25.60;99.90
20370;DHT22;10344;47.592;9.600;2023-09-19T16:03:45;25.10;99.90
20370;DHT22;10344;47.592;9.600;2023-09-19T16:06:16;24.60;99.90
20370;DHT22;10344;47.592;9.600;2023-09-19T16:08:47;24.10;99.90
20370;DHT22;10344;47.592;9.600;2023-09-19T16:11:16;23.70;99.90
20370;DHT22;10344;47.592;9.600;2023-09-19T16:13:47;23.40;99.90
20370;DHT22;10344;47.592;9.600;2023-09-19T16:16:13;23.10;99.90
20370;DHT22;10344;47.592;9.600;2023-09-19T16:21:17;22.70;99.90
20370;DHT22;10344;47.592;9.600;2023-09-19T16:23:49;22.60;99.90
20370;DHT22;10344;47.592;9.600;2023-09-19T16:26:20;22.40;99.90
20370;DHT22;10344;47.592;9.600;2023-09-19T16:28:46;22.30;99.90
20370;DHT22;10344;47.592;9.600;2023-09-19T16:31:12;22.10;99.90
20370;DHT22;10344;47.592;9.600;2023-09-19T16:33:40;22.00;99.90
20370;DHT22;10344;47.592;9.600;2023-09-19T16:36:15;21.90;99.90
20370;DHT22;10344;47.592;9.600;2023-09-19T16:38:46;21.90;99.90
20370;DHT22;10344;47.592;9.600;2023-09-19T16:41:13;21.80;99.90
20370;DHT22;10344;47.592;9.600;2023-09-19T16:43:39;21.60;99.90
20370;DHT22;10344;47.592;9.600;2023-09-19T16:46:08;21.50;99.90
20370;DHT22;10344;47.592;9.600;2023-09-19T16:48:39;21.40;99.90
20370;DHT22;10344;47.592;9.600;2023-09-19T16:51:09;21.40;99.90
20370;DHT22;10344;47.592;9.600;2023-09-19T16:53:35;21.40;99.90